createdAt,value
2023-04-03T00:05:17.295Z,102077.41
2023-04-03T00:10:39.998Z,102073.03
2023-04-03T00:16:03.320Z,102072.25
2023-04-03T00:21:27.916Z,102069.61
2023-04-03T00:26:50.261Z,102067.00
2023-04-03T00:32:12.486Z,102069.76
2023-04-03T00:37:34.717Z,102062.72
2023-04-03T00:43:00.786Z,102063.65
2023-04-03T00:48:28.708Z,102068.05
2023-04-03T00:54:05.585Z,102071.61
2023-04-03T00:59:31.905Z,102065.49
2023-04-03T01:04:56.941Z,102071.63
2023-04-03T01:10:23.088Z,102069.88
2023-04-03T01:15:46.615Z,102067.23
2023-04-03T01:21:46.744Z,102074.28
2023-04-03T01:27:12.320Z,102068.14
2023-04-03T01:32:34.793Z,102073.45
2023-04-03T01:37:57.300Z,102076.11
2023-04-03T01:43:19.668Z,102074.37
2023-04-03T01:48:41.918Z,102081.37
2023-04-03T01:54:04.683Z,102079.61
2023-04-03T01:59:27.343Z,102084.89
2023-04-03T02:04:49.568Z,102090.19
2023-04-03T02:10:12.105Z,102085.79
2023-04-03T02:15:34.411Z,102088.42
2023-04-03T02:20:56.755Z,102094.63
2023-04-03T02:26:25.237Z,102092.88
2023-04-03T02:31:47.893Z,102102.48
2023-04-03T02:37:10.162Z,102092.88
2023-04-03T02:42:32.878Z,102100.80
2023-04-03T02:47:55.673Z,102103.44
2023-04-03T02:53:17.964Z,102102.52
2023-04-03T02:58:40.592Z,102112.19
2023-04-03T03:04:02.969Z,102107.76
2023-04-03T03:09:27.328Z,102116.53
2023-04-03T03:14:49.671Z,102120.92
2023-04-03T03:20:12.651Z,102118.33
2023-04-03T03:25:35.283Z,102128.84
2023-04-03T03:30:57.963Z,102132.38
2023-04-03T03:36:21.047Z,102135.03
2023-04-03T03:41:43.324Z,102130.66
2023-04-03T03:47:07.354Z,102138.63
2023-04-03T03:52:31.432Z,102150.95
2023-04-03T03:57:53.667Z,102152.73
2023-04-03T04:03:16.483Z,102158.89
2023-04-03T04:08:39.068Z,102165.05
2023-04-03T04:14:01.355Z,102168.56
2023-04-03T04:19:23.674Z,102169.42
2023-04-03T04:24:45.985Z,102177.34
2023-04-03T04:30:08.211Z,102175.59
2023-04-03T04:35:30.646Z,102182.63
2023-04-03T04:40:53.164Z,102181.72
2023-04-03T04:46:26.298Z,102186.98
2023-04-03T04:51:52.331Z,102185.20
2023-04-03T04:57:12.845Z,102186.89
2023-04-03T05:02:35.209Z,102196.53
2023-04-03T05:07:57.694Z,102200.02
2023-04-03T05:13:20.107Z,102207.93
2023-04-03T05:18:42.391Z,102208.78
2023-04-03T05:24:04.748Z,102212.28
2023-04-03T05:29:28.201Z,102211.38
2023-04-03T05:34:50.532Z,102215.78
2023-04-03T05:40:14.294Z,102215.81
2023-04-03T05:45:36.639Z,102212.30
2023-04-03T05:50:59.673Z,102210.47
2023-04-03T05:56:22.250Z,102210.32
2023-04-03T06:01:44.570Z,102214.59
2023-04-03T06:07:09.764Z,102219.73
2023-04-03T06:12:32.587Z,102218.70
2023-04-03T06:17:54.854Z,102222.94
2023-04-03T06:23:17.940Z,102218.31
2023-04-03T06:28:40.535Z,102220.81
2023-04-03T06:34:03.196Z,102236.62
2023-04-03T06:39:30.899Z,102235.72
2023-04-03T06:44:53.343Z,102249.70
2023-04-03T06:50:16.997Z,102250.67
2023-04-03T06:55:40.329Z,102235.68
2023-04-03T07:01:02.901Z,102254.11
2023-04-03T07:06:28.348Z,102261.80
2023-04-03T07:11:51.289Z,102268.55
2023-04-03T07:17:13.643Z,102269.77
2023-04-03T07:22:36.302Z,102271.30
2023-04-03T07:27:59.973Z,102285.54
2023-04-03T07:33:23.297Z,102287.19
2023-04-03T07:38:46.218Z,102287.40
2023-04-03T07:44:10.352Z,102285.91
2023-04-03T07:49:34.416Z,102293.76
2023-04-03T07:54:56.849Z,102294.98
2023-04-03T08:00:21.023Z,102305.13
2023-04-03T08:05:47.187Z,102303.22
2023-04-03T08:11:11.938Z,102295.26
2023-04-03T08:16:38.806Z,102307.72
2023-04-03T08:22:04.207Z,102310.74
2023-04-03T08:27:28.354Z,102309.27
2023-04-03T08:32:51.185Z,102302.11
2023-04-03T08:38:13.812Z,102309.94
2023-04-03T08:43:47.066Z,102312.94
2023-04-03T08:49:12.045Z,102309.52
2023-04-03T08:54:38.408Z,102303.98
2023-04-03T09:00:00.962Z,102305.00
2023-04-03T09:05:27.765Z,102327.89
2023-04-03T09:10:53.367Z,102319.23
2023-04-03T09:16:25.976Z,102308.62
2023-04-03T09:21:51.456Z,102316.03
2023-04-03T09:27:17.810Z,102308.25
2023-04-03T09:32:48.873Z,102315.52
2023-04-03T09:38:27.835Z,102298.81
2023-04-03T09:43:54.015Z,102302.18
2023-04-03T09:49:23.075Z,102299.36
2023-04-03T09:54:49.040Z,102316.62
2023-04-03T10:00:28.856Z,102308.65
2023-04-03T10:05:56.611Z,102307.53
2023-04-03T10:11:32.627Z,102311.98
2023-04-03T10:17:04.836Z,102302.78
2023-04-03T10:22:46.919Z,102297.76
2023-04-03T10:28:34.600Z,102294.98
2023-04-03T10:34:31.695Z,102298.91
2023-04-03T10:40:13.934Z,102310.49
2023-04-03T10:45:57.413Z,102300.11
2023-04-03T10:51:39.872Z,102299.01
2023-04-03T10:57:24.266Z,102295.81
2023-04-03T11:03:02.650Z,102280.31
2023-04-03T11:08:48.076Z,102296.77
2023-04-03T11:14:39.213Z,102303.02
2023-04-03T11:20:26.224Z,102286.38
2023-04-03T11:25:51.304Z,102288.02
2023-04-03T11:31:34.964Z,102274.03
2023-04-03T11:37:05.522Z,102262.05
2023-04-03T11:42:42.489Z,102265.36
2023-04-03T11:48:23.297Z,102282.66
2023-04-03T11:53:46.301Z,102269.23
2023-04-03T11:59:30.620Z,102276.73
2023-04-03T12:04:56.377Z,102261.84
2023-04-03T12:10:32.106Z,102249.08
2023-04-03T12:15:59.971Z,102255.03
2023-04-03T12:21:39.049Z,102257.89
2023-04-03T12:27:16.023Z,102258.17
2023-04-03T12:33:14.707Z,102251.61
2023-04-03T12:39:04.882Z,102226.49
2023-04-03T12:44:47.206Z,102248.55
2023-04-03T12:50:12.084Z,102232.72
2023-04-03T12:55:36.253Z,102236.22
2023-04-03T13:01:00.714Z,102235.45
2023-04-03T13:06:50.215Z,102234.04
2023-04-03T13:12:31.865Z,102239.66
2023-04-03T13:17:56.099Z,102239.55
2023-04-03T13:23:30.904Z,102235.26
2023-04-03T13:28:54.913Z,102220.15
2023-04-03T13:34:30.288Z,102232.20
2023-04-03T13:39:56.170Z,102221.94
2023-04-03T13:45:42.409Z,102219.33
2023-04-03T13:51:18.173Z,102231.62
2023-04-03T13:56:47.897Z,102235.75
2023-04-03T14:02:21.713Z,102226.59
2023-04-03T14:07:44.954Z,102212.73
2023-04-03T14:13:07.457Z,102215.23
2023-04-03T14:18:33.311Z,102218.10
2023-04-03T14:23:55.883Z,102225.17
2023-04-03T14:29:18.825Z,102218.00
2023-04-03T14:34:44.352Z,102227.13
2023-04-03T14:40:08.427Z,102203.84
2023-04-03T14:45:32.231Z,102211.55
2023-04-03T14:51:05.345Z,102209.80
2023-04-03T14:56:25.467Z,102216.63
2023-04-03T15:01:52.656Z,102212.53
2023-04-03T15:07:16.408Z,102207.04
2023-04-03T15:12:39.620Z,102205.48
2023-04-03T15:18:07.035Z,102202.19
2023-04-03T15:23:31.773Z,102225.09
2023-04-03T15:28:56.501Z,102211.64
2023-04-03T15:34:19.034Z,102209.18
2023-04-03T15:39:41.634Z,102208.88
2023-04-03T15:45:03.957Z,102220.27
2023-04-03T15:50:26.777Z,102224.19
2023-04-03T15:55:51.403Z,102220.02
2023-04-03T16:01:13.964Z,102208.09
2023-04-03T16:06:38.780Z,102219.15
2023-04-03T16:12:01.781Z,102220.71
2023-04-03T16:17:24.890Z,102222.62
2023-04-03T16:22:49.834Z,102215.51
2023-04-03T16:28:13.252Z,102232.36
2023-04-03T16:33:36.534Z,102232.84
2023-04-03T16:38:58.985Z,102242.95
2023-04-03T16:44:23.025Z,102244.32
2023-04-03T16:49:45.471Z,102241.71
2023-04-03T16:55:07.815Z,102250.87
2023-04-03T17:00:30.536Z,102253.71
2023-04-03T17:05:55.755Z,102251.30
2023-04-03T17:11:18.191Z,102253.48
2023-04-03T17:16:41.656Z,102257.20
2023-04-03T17:22:05.230Z,102254.77
2023-04-03T17:27:27.728Z,102263.62
2023-04-03T17:32:50.154Z,102266.91
2023-04-03T17:38:12.470Z,102273.81
2023-04-03T17:43:35.061Z,102270.23
2023-04-03T17:49:02.680Z,102271.35
2023-04-03T17:54:25.421Z,102274.31
2023-04-03T17:59:47.747Z,102273.77
2023-04-03T18:05:11.886Z,102272.33
2023-04-03T18:10:35.015Z,102269.09
2023-04-03T18:15:57.895Z,102269.21
2023-04-03T18:21:22.573Z,102282.31
2023-04-03T18:26:47.184Z,102281.23
2023-04-03T18:32:11.537Z,102277.59
2023-04-03T18:37:34.409Z,102275.80
2023-04-03T18:42:58.053Z,102280.18
2023-04-03T18:48:21.742Z,102285.53
2023-04-03T18:53:44.350Z,102272.30
2023-04-03T18:59:07.100Z,102275.80
2023-04-03T19:04:30.162Z,102266.00
2023-04-03T19:09:53.465Z,102266.84
2023-04-03T19:15:16.254Z,102265.90
2023-04-03T19:20:39.136Z,102265.00
2023-04-03T19:26:07.685Z,102264.97
2023-04-03T19:31:35.388Z,102257.95
2023-04-03T19:36:57.794Z,102260.55
2023-04-03T19:42:21.299Z,102255.26
2023-04-03T19:47:45.334Z,102261.36
2023-04-03T19:53:09.258Z,102258.70
2023-04-03T19:58:32.303Z,102260.59
2023-04-03T20:03:54.625Z,102251.94
2023-04-03T20:09:18.578Z,102247.59
2023-04-03T20:14:41.988Z,102244.18
2023-04-03T20:20:04.756Z,102244.22
2023-04-03T20:25:48.060Z,102234.59
2023-04-03T20:30:54.748Z,102237.23
2023-04-03T20:36:17.223Z,102236.47
2023-04-03T20:41:39.727Z,102233.03
2023-04-03T20:47:02.014Z,102237.47
2023-04-03T20:52:24.353Z,102239.20
2023-04-03T20:57:54.397Z,102244.52
2023-04-03T21:03:12.857Z,102240.97
2023-04-03T21:09:30.397Z,102244.53
2023-04-03T21:15:48.202Z,102242.83
2023-04-03T21:21:10.508Z,102249.00
2023-04-03T21:26:34.288Z,102247.48
2023-04-03T21:32:11.284Z,102252.09
2023-04-03T21:37:34.096Z,102252.25
2023-04-03T21:42:58.625Z,102242.63
2023-04-03T21:48:21.979Z,102240.94
2023-04-03T21:53:46.095Z,102247.20
2023-04-03T21:59:08.577Z,102236.72
2023-04-03T22:04:31.089Z,102239.43
2023-04-03T22:09:53.788Z,102243.91
2023-04-03T22:15:16.897Z,102251.84
2023-04-03T22:20:39.314Z,102240.47
2023-04-03T22:26:22.036Z,102240.50
2023-04-03T22:31:44.300Z,102242.27
2023-04-03T22:37:06.749Z,102240.55
2023-04-03T22:42:30.282Z,102239.69
2023-04-03T22:47:53.218Z,102235.31
2023-04-03T22:53:15.966Z,102232.66
2023-04-03T22:58:38.261Z,102229.13
2023-04-03T23:04:01.182Z,102230.88
2023-04-03T23:09:23.615Z,102216.81
2023-04-03T23:14:45.988Z,102228.23
2023-04-03T23:20:08.242Z,102222.06
2023-04-03T23:25:31.278Z,102211.48
2023-04-03T23:30:54.472Z,102222.02
2023-04-03T23:36:21.365Z,102203.56
2023-04-03T23:41:44.548Z,102201.80
2023-04-03T23:47:06.954Z,102205.31
2023-04-03T23:52:30.846Z,102197.39
2023-04-03T23:57:55.832Z,102196.48
